Time;durP1;ratioP1;P1;durP2;ratioP2;P2;SDS_P1;SDS_P2;PMS_P1;PMS_P2;Temp;Humidity;BMP_temperature;BMP_pressure;BME280_temperature;BME280_humidity;BME280_pressure;Samples;Min_cycle;Max_cycle;Signal;HPM_P1;HPM_P2
2024/01/29 00:00:47;;;;;;;12.18;7.03;;;;;;;2.76;100.00;102477.13;5094536;28;20032;-74
2024/01/29 00:03:12;;;;;;;11.80;6.60;;;;;;;2.71;100.00;102483.44;5094811;28;20031;-74
2024/01/29 00:05:38;;;;;;;15.77;7.60;;;;;;;2.66;100.00;102488.84;5094752;28;20032;-75
2024/01/29 00:08:03;;;;;;;12.85;6.97;;;;;;;2.64;100.00;102490.63;5076715;28;20038;-75
2024/01/29 00:10:29;;;;;;;10.65;6.97;;;;;;;2.61;100.00;102482.84;5094702;28;20040;-75
2024/01/29 00:12:54;;;;;;;10.32;7.18;;;;;;;2.55;100.00;102483.03;5094938;28;20020;-75
2024/01/29 00:15:20;;;;;;;10.48;7.25;;;;;;;2.53;100.00;102480.47;5094885;28;20040;-75
2024/01/29 00:17:45;;;;;;;14.82;8.35;;;;;;;2.52;100.00;102480.50;5094750;28;20377;-75
2024/01/29 00:20:10;;;;;;;12.85;6.65;;;;;;;2.56;100.00;102476.88;5076199;28;20070;-74
2024/01/29 00:22:36;;;;;;;10.25;6.78;;;;;;;2.61;100.00;102496.88;5094313;28;20027;-74
2024/01/29 00:25:01;;;;;;;11.77;6.80;;;;;;;2.61;100.00;102491.63;5094290;28;20024;-75
2024/01/29 00:27:27;;;;;;;18.55;6.60;;;;;;;2.61;100.00;102488.09;5076749;28;20404;-73
2024/01/29 00:29:52;;;;;;;11.45;6.63;;;;;;;2.62;100.00;102492.47;5094104;28;20480;-74
2024/01/29 00:32:18;;;;;;;10.90;6.55;;;;;;;2.64;100.00;102493.25;5094402;28;20036;-74
2024/01/29 00:34:44;;;;;;;11.00;6.50;;;;;;;2.61;100.00;102495.97;5075935;28;20442;-74
2024/01/29 00:37:09;;;;;;;10.48;6.13;;;;;;;2.60;100.00;102489.88;5094141;28;20063;-74
2024/01/29 00:39:35;;;;;;;14.98;6.70;;;;;;;2.57;100.00;102497.84;5076238;28;20032;-75
2024/01/29 00:42:00;;;;;;;15.82;7.25;;;;;;;2.51;100.00;102499.78;5094378;28;20388;-74
2024/01/29 00:44:26;;;;;;;10.55;6.90;;;;;;;2.54;100.00;102497.06;5094859;28;20082;-74
2024/01/29 00:46:51;;;;;;;14.00;6.82;;;;;;;2.50;100.00;102490.22;5093796;28;20400;-74
2024/01/29 00:49:17;;;;;;;10.88;6.53;;;;;;;2.45;100.00;102493.00;5093630;28;20036;-74
2024/01/29 00:51:42;;;;;;;10.10;7.00;;;;;;;2.41;100.00;102492.19;5094032;28;20036;-74
2024/01/29 00:54:07;;;;;;;9.85;6.95;;;;;;;2.45;100.00;102499.09;5093712;28;20499;-75
2024/01/29 00:56:33;;;;;;;10.95;6.63;;;;;;;2.49;100.00;102501.63;5076202;28;20134;-75
2024/01/29 00:58:58;;;;;;;10.13;7.05;;;;;;;2.46;100.00;102495.56;5093648;28;20034;-75
2024/01/29 01:01:24;;;;;;;17.25;7.60;;;;;;;2.46;100.00;102508.72;5093713;28;20042;-75
2024/01/29 01:03:49;;;;;;;15.60;7.60;;;;;;;2.46;100.00;102510.44;5075587;28;20043;-76
2024/01/29 01:06:14;;;;;;;11.23;7.20;;;;;;;2.58;100.00;102514.47;5093616;28;20032;-75
2024/01/29 01:08:40;;;;;;;12.30;7.38;;;;;;;2.60;100.00;102508.28;5093321;28;20076;-74
2024/01/29 01:11:07;;;;;;;14.52;7.78;;;;;;;2.62;100.00;102524.00;5093567;28;20452;-75
2024/01/29 01:13:33;;;;;;;13.30;6.75;;;;;;;2.62;100.00;102524.84;5075438;28;20028;-75
2024/01/29 01:15:58;;;;;;;12.57;7.50;;;;;;;2.65;100.00;102521.28;5075232;28;20063;-75
2024/01/29 01:18:24;;;;;;;12.05;7.32;;;;;;;2.65;100.00;102527.38;5093742;28;20415;-75
2024/01/29 01:20:49;;;;;;;13.05;8.10;;;;;;;2.67;100.00;102519.44;5094068;28;20089;-75
2024/01/29 01:23:14;;;;;;;13.20;7.80;;;;;;;2.63;100.00;102517.84;5093484;28;20024;-75
2024/01/29 01:25:40;;;;;;;10.45;7.30;;;;;;;2.56;100.00;102511.91;5093534;28;20115;-73
2024/01/29 01:28:06;;;;;;;11.10;7.20;;;;;;;2.54;100.00;102518.97;5093488;28;20032;-75
2024/01/29 01:30:31;;;;;;;13.07;7.65;;;;;;;2.52;100.00;102504.16;5093559;28;20032;-74
2024/01/29 01:32:57;;;;;;;12.23;7.70;;;;;;;2.53;100.00;102509.38;5075674;28;20028;-74
2024/01/29 01:35:22;;;;;;;12.40;7.80;;;;;;;2.50;100.00;102512.09;5093266;28;20032;-74
2024/01/29 01:37:48;;;;;;;12.43;7.82;;;;;;;2.49;100.00;102512.13;5076068;28;20032;-75
2024/01/29 01:40:13;;;;;;;12.30;6.72;;;;;;;2.44;100.00;102502.63;5093287;28;20482;-75
2024/01/29 01:42:41;;;;;;;10.50;6.70;;;;;;;2.39;100.00;102507.16;5093749;28;20036;-74
2024/01/29 01:45:07;;;;;;;12.57;8.00;;;;;;;2.34;100.00;102514.28;5093373;28;20032;-75
2024/01/29 01:47:32;;;;;;;9.65;7.07;;;;;;;2.39;100.00;102508.91;5093532;28;20032;-75
2024/01/29 01:49:58;;;;;;;10.80;7.65;;;;;;;2.44;100.00;102512.28;5093544;28;20028;-75
2024/01/29 01:52:23;;;;;;;15.50;8.23;;;;;;;2.46;100.00;102510.44;5093172;28;20024;-75
2024/01/29 01:54:49;;;;;;;13.13;7.90;;;;;;;2.53;100.00;102511.16;5075505;28;20440;-74
2024/01/29 01:57:15;;;;;;;16.15;8.38;;;;;;;2.56;100.00;102521.56;5093207;28;20119;-75
2024/01/29 01:59:40;;;;;;;12.55;7.78;;;;;;;2.54;100.00;102510.22;5094881;28;20522;-74
2024/01/29 02:02:07;;;;;;;15.27;7.72;;;;;;;2.52;100.00;102509.41;5079282;28;20110;-75
2024/01/29 02:04:33;;;;;;;10.80;7.28;;;;;;;2.52;100.00;102498.91;5096983;28;20457;-74
2024/01/29 02:06:59;;;;;;;14.00;8.48;;;;;;;2.57;100.00;102491.75;5097012;28;20097;-75
2024/01/29 02:09:24;;;;;;;14.40;8.20;;;;;;;2.59;100.00;102500.44;5096698;28;20038;-75
2024/01/29 02:11:50;;;;;;;12.30;8.38;;;;;;;2.59;100.00;102501.28;5097085;28;20036;-75
2024/01/29 02:14:15;;;;;;;12.45;7.80;;;;;;;2.57;100.00;102503.13;5096709;28;20406;-80
2024/01/29 02:16:41;;;;;;;13.32;7.95;;;;;;;2.63;100.00;102502.06;5097794;28;20059;-74
2024/01/29 02:19:15;;;;;;;15.95;8.15;;;;;;;2.62;100.00;102510.84;5096609;28;20036;-74
2024/01/29 02:21:40;;;;;;;11.65;7.10;;;;;;;2.60;100.00;102512.69;5097552;28;20024;-74
2024/01/29 02:24:06;;;;;;;13.40;8.30;;;;;;;2.57;100.00;102507.53;5096471;28;20067;-74
2024/01/29 02:26:31;;;;;;;11.70;8.00;;;;;;;2.54;100.00;102516.34;5096514;28;20188;-74
2024/01/29 02:28:57;;;;;;;14.95;8.35;;;;;;;2.53;100.00;102508.50;5097165;28;20044;-74
2024/01/29 02:31:23;;;;;;;10.60;7.68;;;;;;;2.50;100.00;102513.88;5078698;28;20028;-76
2024/01/29 02:33:48;;;;;;;12.85;7.72;;;;;;;2.53;100.00;102519.03;5096398;28;20090;-76
2024/01/29 02:36:13;;;;;;;13.18;7.75;;;;;;;2.56;100.00;102513.69;5096805;28;20028;-74
2024/01/29 02:38:39;;;;;;;12.07;7.68;;;;;;;2.58;100.00;102525.00;5078047;28;20055;-74
2024/01/29 02:41:04;;;;;;;12.30;7.88;;;;;;;2.60;100.00;102529.31;5096407;28;20068;-74
2024/01/29 02:43:29;;;;;;;14.85;7.75;;;;;;;2.61;100.00;102524.91;5096275;28;20031;-74
2024/01/29 02:45:55;;;;;;;10.65;7.53;;;;;;;2.59;100.00;102535.47;5077788;28;20058;-74
2024/01/29 02:48:20;;;;;;;17.77;8.35;;;;;;;2.57;100.00;102532.03;5096505;28;20028;-79
2024/01/29 02:50:46;;;;;;;11.38;8.30;;;;;;;2.62;100.00;102527.47;5096460;28;20028;-74
2024/01/29 02:53:11;;;;;;;12.20;8.30;;;;;;;2.61;100.00;102522.28;5096135;28;20524;-74
2024/01/29 02:55:36;;;;;;;13.00;7.72;;;;;;;2.58;100.00;102519.72;5096729;28;20036;-74
2024/01/29 02:58:02;;;;;;;13.98;8.20;;;;;;;2.56;100.00;102525.03;5096049;28;20035;-75
2024/01/29 03:00:28;;;;;;;12.75;7.63;;;;;;;2.57;100.00;102526.78;5096466;28;20169;-75
2024/01/29 03:02:53;;;;;;;11.68;8.20;;;;;;;2.62;100.00;102540.63;5096229;28;20140;-75
2024/01/29 03:05:18;;;;;;;12.35;8.05;;;;;;;2.63;100.00;102544.97;5077852;28;20032;-74
2024/01/29 03:07:44;;;;;;;13.95;8.15;;;;;;;2.63;100.00;102537.09;5095766;28;20032;-74
2024/01/29 03:10:09;;;;;;;14.75;8.80;;;;;;;2.61;100.00;102524.91;5095669;28;20028;-74
2024/01/29 03:12:35;;;;;;;12.23;8.30;;;;;;;2.63;100.00;102533.63;5096211;28;20032;-75
2024/01/29 03:15:00;;;;;;;12.30;7.63;;;;;;;2.70;100.00;102524.63;5095965;28;20054;-74
2024/01/29 03:17:25;;;;;;;12.50;7.93;;;;;;;2.72;100.00;102532.47;5095327;28;20036;-75
2024/01/29 03:19:51;;;;;;;12.40;8.35;;;;;;;2.75;100.00;102558.69;5077852;28;20056;-74
2024/01/29 03:22:16;;;;;;;12.80;7.65;;;;;;;2.81;100.00;102572.47;5077663;28;20032;-74
2024/01/29 03:24:42;;;;;;;18.75;7.88;;;;;;;2.85;100.00;102556.59;5095413;28;20107;-74
2024/01/29 03:27:07;;;;;;;15.73;7.78;;;;;;;2.78;100.00;102556.81;5095748;28;20032;-74
2024/01/29 03:29:32;;;;;;;12.38;7.68;;;;;;;2.73;100.00;102563.09;5077252;28;20077;-74
2024/01/29 03:31:58;;;;;;;17.40;8.43;;;;;;;2.66;100.00;102562.44;5095393;28;20081;-74
2024/01/29 03:34:23;;;;;;;13.10;7.75;;;;;;;2.63;100.00;102554.66;5077440;28;20179;-74
2024/01/29 03:36:48;;;;;;;12.95;7.88;;;;;;;2.56;100.00;102545.22;5095345;28;20388;-74
2024/01/29 03:39:14;;;;;;;14.68;7.72;;;;;;;2.54;100.00;102550.50;5077287;28;20109;-74
2024/01/29 03:41:39;;;;;;;15.35;7.72;;;;;;;2.51;100.00;102560.22;5095074;28;20032;-74
2024/01/29 03:44:04;;;;;;;12.45;7.80;;;;;;;2.47;100.00;102557.69;5076993;28;20039;-74
2024/01/29 03:46:30;;;;;;;12.50;8.07;;;;;;;2.45;100.00;102554.28;5076813;28;20036;-77
2024/01/29 03:48:55;;;;;;;10.82;8.07;;;;;;;2.50;100.00;102551.50;5095655;28;20029;-74
2024/01/29 03:51:20;;;;;;;12.40;7.90;;;;;;;2.55;100.00;102552.22;5094960;28;20032;-75
2024/01/29 03:53:46;;;;;;;13.38;8.23;;;;;;;2.54;100.00;102540.00;5094750;28;20036;-74
2024/01/29 03:56:11;;;;;;;10.40;7.47;;;;;;;2.55;100.00;102533.81;5094773;28;20032;-74
2024/01/29 03:58:36;;;;;;;13.95;7.65;;;;;;;2.60;100.00;102534.56;5094850;28;20410;-74
2024/01/29 04:01:02;;;;;;;12.35;8.43;;;;;;;2.61;100.00;102535.41;5076761;28;20214;-74
2024/01/29 04:03:27;;;;;;;13.52;7.95;;;;;;;2.60;100.00;102531.09;5095086;28;20052;-75
2024/01/29 04:05:53;;;;;;;13.90;8.60;;;;;;;2.57;100.00;102528.53;5094400;28;20111;-74
2024/01/29 04:08:18;;;;;;;10.85;8.23;;;;;;;2.57;100.00;102533.81;5095239;28;20064;-74
2024/01/29 04:10:43;;;;;;;14.55;8.07;;;;;;;2.53;100.00;102532.16;5094845;28;20078;-74
2024/01/29 04:13:09;;;;;;;12.63;8.50;;;;;;;2.52;100.00;102533.06;5094930;28;20036;-74
2024/01/29 04:15:34;;;;;;;16.60;8.27;;;;;;;2.47;100.00;102533.19;5075923;28;20098;-75
2024/01/29 04:17:59;;;;;;;12.55;8.32;;;;;;;2.50;100.00;102532.25;5094939;28;20032;-74
2024/01/29 04:20:25;;;;;;;11.98;8.55;;;;;;;2.47;100.00;102523.53;5094548;28;20424;-74
2024/01/29 04:22:50;;;;;;;14.15;8.25;;;;;;;2.51;100.00;102529.59;5075765;28;20036;-73
2024/01/29 04:25:15;;;;;;;11.10;8.07;;;;;;;2.50;100.00;102534.88;5094885;28;20064;-74
2024/01/29 04:27:41;;;;;;;11.75;8.30;;;;;;;2.44;100.00;102526.25;5094310;28;20066;-74
2024/01/29 04:30:07;;;;;;;12.85;8.32;;;;;;;2.42;100.00;102527.22;5094235;28;20024;-74
2024/01/29 04:32:32;;;;;;;14.02;8.68;;;;;;;2.41;100.00;102528.13;5094171;28;20028;-74
2024/01/29 04:34:58;;;;;;;11.48;8.52;;;;;;;2.38;100.00;102523.81;5094176;28;20388;-74
2024/01/29 04:37:24;;;;;;;15.43;9.35;;;;;;;2.46;100.00;102510.44;5076435;28;20144;-74
2024/01/29 04:39:49;;;;;;;12.55;9.13;;;;;;;2.51;100.00;102513.81;5093783;28;20035;-74
2024/01/29 04:42:15;;;;;;;11.93;8.00;;;;;;;2.53;100.00;102517.25;5094589;28;20036;-74
2024/01/29 04:44:40;;;;;;;13.43;8.68;;;;;;;2.52;100.00;102517.28;5093861;28;20452;-74
2024/01/29 04:47:06;;;;;;;14.05;8.85;;;;;;;2.47;100.00;102523.53;5094037;28;20361;-74
2024/01/29 04:49:31;;;;;;;12.07;8.20;;;;;;;2.40;100.00;102524.63;5075808;28;20068;-73
2024/01/29 04:51:57;;;;;;;14.45;8.68;;;;;;;2.38;100.00;102523.81;5093764;28;20161;-75
2024/01/29 04:54:22;;;;;;;12.85;8.43;;;;;;;2.41;100.00;102534.22;5076370;28;20035;-74
2024/01/29 04:56:47;;;;;;;12.52;9.02;;;;;;;2.45;100.00;102540.28;5093771;28;20028;-75
2024/01/29 04:59:13;;;;;;;20.20;9.05;;;;;;;2.41;100.00;102539.50;5093549;28;20068;-74
2024/01/29 05:01:39;;;;;;;16.08;8.95;;;;;;;2.39;100.00;102543.94;5093675;28;20028;-80
2024/01/29 05:04:04;;;;;;;15.90;8.93;;;;;;;2.40;100.00;102545.63;5093483;28;20043;-74
2024/01/29 05:06:30;;;;;;;12.48;8.27;;;;;;;2.40;100.00;102564.03;5094016;28;20464;-75
2024/01/29 05:08:55;;;;;;;15.07;8.82;;;;;;;2.43;100.00;102561.34;5094101;28;20353;-73
2024/01/29 05:11:20;;;;;;;13.00;9.18;;;;;;;2.48;100.00;102553.31;5093546;28;20483;-73
2024/01/29 05:13:46;;;;;;;13.90;9.00;;;;;;;2.51;100.00;102562.88;5076020;28;20042;-74
2024/01/29 05:16:11;;;;;;;14.73;9.73;;;;;;;2.55;100.00;102561.88;5094480;28;20048;-74
2024/01/29 05:18:37;;;;;;;16.70;9.73;;;;;;;2.53;100.00;102561.06;5094419;28;20024;-74
2024/01/29 05:21:03;;;;;;;13.18;8.50;;;;;;;2.47;100.00;102560.31;5094319;28;20077;-76
2024/01/29 05:23:29;;;;;;;14.65;9.57;;;;;;;2.45;100.00;102564.78;5093451;28;20040;-75
2024/01/29 05:25:54;;;;;;;16.48;9.50;;;;;;;2.44;100.00;102570.94;5093425;28;20369;-75
2024/01/29 05:28:20;;;;;;;13.10;9.23;;;;;;;2.51;100.00;102573.38;5093564;28;20083;-74
2024/01/29 05:30:45;;;;;;;14.45;9.27;;;;;;;2.51;100.00;102571.63;5093749;28;20086;-75
2024/01/29 05:33:11;;;;;;;12.63;8.80;;;;;;;2.54;100.00;102563.66;5093410;28;20380;-74
2024/01/29 05:35:37;;;;;;;14.95;8.70;;;;;;;2.52;100.00;102561.97;5097520;28;20376;-74
2024/01/29 05:38:03;;;;;;;13.30;9.52;;;;;;;2.52;100.00;102573.31;5097520;28;20467;-74
2024/01/29 05:40:28;;;;;;;14.98;8.65;;;;;;;2.61;100.00;102573.09;5098072;28;20044;-74
2024/01/29 05:42:54;;;;;;;13.82;9.30;;;;;;;2.59;100.00;102567.00;5063248;28;20032;-74
2024/01/29 05:45:20;;;;;;;13.50;8.90;;;;;;;2.58;100.00;102569.66;5097602;28;20028;-74
2024/01/29 05:47:46;;;;;;;13.57;8.77;;;;;;;2.55;100.00;102567.13;5097441;28;20032;-79
2024/01/29 05:50:11;;;;;;;15.00;8.38;;;;;;;2.53;100.00;102556.66;5096931;28;20024;-74
2024/01/29 05:52:37;;;;;;;13.93;8.93;;;;;;;2.48;100.00;102561.22;5097705;28;20059;-74
2024/01/29 05:55:03;;;;;;;13.73;9.05;;;;;;;2.45;100.00;102556.91;5096894;28;20076;-75
2024/01/29 05:57:28;;;;;;;15.93;9.60;;;;;;;2.43;100.00;102556.09;5079223;28;20202;-74
2024/01/29 05:59:54;;;;;;;16.75;9.88;;;;;;;2.42;100.00;102564.88;5079038;28;20434;-76
2024/01/29 06:02:19;;;;;;;12.13;9.07;;;;;;;2.40;100.00;102561.41;5097290;28;20064;-74
2024/01/29 06:04:45;;;;;;;12.65;8.68;;;;;;;2.36;100.00;102567.66;5097518;28;20420;-75
2024/01/29 06:07:10;;;;;;;17.75;8.73;;;;;;;2.33;100.00;102559.00;5097559;28;20054;-75
2024/01/29 06:09:36;;;;;;;12.55;9.20;;;;;;;2.34;100.00;102561.59;5097121;28;20455;-76
2024/01/29 06:12:01;;;;;;;15.48;9.55;;;;;;;2.37;100.00;102560.66;5096841;28;20032;-76
2024/01/29 06:14:26;;;;;;;15.90;9.57;;;;;;;2.37;100.00;102563.28;5078440;28;20044;-75
2024/01/29 06:16:56;;;;;;;16.40;9.20;;;;;;;2.39;100.00;102557.06;5096846;28;20032;-76
2024/01/29 06:19:21;;;;;;;14.77;9.93;;;;;;;2.40;100.00;102558.78;5096992;28;20028;-76
2024/01/29 06:21:48;;;;;;;14.63;9.35;;;;;;;2.41;100.00;102564.91;5097092;28;20093;-75
2024/01/29 06:24:13;;;;;;;16.45;10.07;;;;;;;2.43;100.00;102563.09;5097218;28;20028;-74
2024/01/29 06:26:40;;;;;;;12.30;9.90;;;;;;;2.47;100.00;102564.72;5078375;28;20032;-77
2024/01/29 06:29:05;;;;;;;16.83;9.70;;;;;;;2.50;100.00;102563.78;5096564;28;20054;-74
2024/01/29 06:31:30;;;;;;;16.48;10.65;;;;;;;2.53;100.00;102563.69;5096395;28;20118;-74
2024/01/29 06:33:56;;;;;;;15.63;10.65;;;;;;;2.56;100.00;102561.84;5096083;28;20036;-74
2024/01/29 06:36:22;;;;;;;15.18;9.98;;;;;;;2.62;100.00;102560.78;5078314;28;20070;-74
2024/01/29 06:38:47;;;;;;;14.32;10.07;;;;;;;2.63;100.00;102570.41;5078721;28;20138;-75
2024/01/29 06:41:20;;;;;;;12.80;8.88;;;;;;;2.63;100.00;102567.78;5061801;28;20032;-75
2024/01/29 06:43:45;;;;;;;15.50;10.55;;;;;;;2.66;100.00;102572.94;5096616;28;20391;-75
2024/01/29 06:46:11;;;;;;;12.93;9.18;;;;;;;2.64;100.00;102577.38;5080094;28;20024;-75
2024/01/29 06:48:37;;;;;;;19.42;10.52;;;;;;;2.62;100.00;102577.41;5067250;28;20116;-75
2024/01/29 06:51:03;;;;;;;14.35;10.20;;;;;;;2.60;100.00;102588.91;5103134;28;20024;-74
2024/01/29 06:53:29;;;;;;;17.10;10.13;;;;;;;2.59;100.00;102590.66;5103704;28;20032;-75
2024/01/29 06:55:54;;;;;;;15.98;9.80;;;;;;;2.59;100.00;102595.91;5101179;28;20034;-75
2024/01/29 06:58:20;;;;;;;15.05;9.48;;;;;;;2.59;100.00;102587.16;5102517;28;20035;-74
2024/01/29 07:00:46;;;;;;;16.33;10.32;;;;;;;2.58;100.00;102593.31;5084705;28;20031;-76
2024/01/29 07:03:11;;;;;;;16.25;10.40;;;;;;;2.56;100.00;102590.75;5097984;28;20029;-75
2024/01/29 07:05:36;;;;;;;14.23;10.32;;;;;;;2.59;100.00;102587.16;5097335;28;20384;-74
2024/01/29 07:08:02;;;;;;;16.13;10.60;;;;;;;2.62;100.00;102595.81;5096234;28;20460;-75
2024/01/29 07:10:28;;;;;;;19.33;10.50;;;;;;;2.65;100.00;102592.25;5096306;28;20024;-74
2024/01/29 07:12:53;;;;;;;14.32;10.65;;;;;;;2.63;100.00;102589.66;5095820;28;20379;-75
2024/01/29 07:15:19;;;;;;;16.45;10.82;;;;;;;2.65;100.00;102598.34;5096189;28;20094;-75
2024/01/29 07:17:45;;;;;;;18.05;9.98;;;;;;;2.67;100.00;102607.97;5077571;28;20464;-74
2024/01/29 07:20:11;;;;;;;16.88;10.50;;;;;;;2.68;100.00;102605.28;5095620;28;20028;-76
2024/01/29 07:22:38;;;;;;;15.15;10.88;;;;;;;2.67;100.00;102608.81;5095821;28;20379;-74
2024/01/29 07:25:08;;;;;;;18.65;11.55;;;;;;;2.68;100.00;102607.91;5096335;28;20036;-76
2024/01/29 07:27:33;;;;;;;16.08;10.60;;;;;;;2.69;100.00;102614.91;5095856;28;20032;-75
2024/01/29 07:29:59;;;;;;;19.98;11.90;;;;;;;2.69;100.00;102620.16;5095534;28;20109;-74
2024/01/29 07:32:31;;;;;;;18.23;11.40;;;;;;;2.71;100.00;102615.72;5077234;28;20122;-75
2024/01/29 07:35:03;;;;;;;17.02;11.13;;;;;;;2.73;100.00;102624.44;5077931;28;20032;-76
2024/01/29 07:37:28;;;;;;;16.67;10.55;;;;;;;2.79;100.00;102624.25;5095855;28;20043;-76
2024/01/29 07:39:54;;;;;;;15.48;11.48;;;;;;;2.83;100.00;102628.50;5095465;28;20107;-76
2024/01/29 07:42:19;;;;;;;14.98;10.82;;;;;;;2.87;100.00;102631.06;5095077;28;20086;-75
2024/01/29 07:44:45;;;;;;;18.20;10.85;;;;;;;2.91;100.00;102627.41;5076641;28;20472;-75
2024/01/29 07:47:11;;;;;;;18.77;11.07;;;;;;;2.92;100.00;102630.00;5094923;28;20028;-75
2024/01/29 07:49:36;;;;;;;13.63;9.55;;;;;;;2.91;100.00;102630.03;5095361;28;20031;-75
2024/01/29 07:52:02;;;;;;;21.42;11.10;;;;;;;2.90;100.00;102628.34;5095075;28;20119;-75
2024/01/29 07:54:28;;;;;;;20.25;11.25;;;;;;;2.89;100.00;102629.25;5094845;28;20036;-76
2024/01/29 07:56:53;;;;;;;20.17;12.25;;;;;;;2.90;100.00;102631.81;5094048;28;20126;-77
2024/01/29 07:59:18;;;;;;;17.02;10.70;;;;;;;2.91;100.00;102625.66;5094450;28;20074;-77
2024/01/29 08:01:47;;;;;;;19.23;12.35;;;;;;;2.94;100.00;102627.31;5094344;28;20056;-76
2024/01/29 08:04:12;;;;;;;22.98;12.40;;;;;;;2.98;100.00;102640.31;5094077;28;20024;-75
2024/01/29 08:06:37;;;;;;;16.45;10.70;;;;;;;3.02;100.00;102627.13;5094388;28;20024;-75
2024/01/29 08:09:06;;;;;;;20.60;11.40;;;;;;;3.06;100.00;102633.97;5076260;28;20032;-77
2024/01/29 08:11:32;;;;;;;16.38;11.57;;;;;;;3.06;100.00;102634.88;5076836;28;20412;-75
2024/01/29 08:13:58;;;;;;;18.17;10.68;;;;;;;3.07;100.00;102635.72;5095174;28;20024;-76
2024/01/29 08:16:23;;;;;;;16.65;11.48;;;;;;;3.10;100.00;102633.84;5094430;28;20132;-77
2024/01/29 08:18:51;;;;;;;19.73;11.73;;;;;;;3.14;100.00;102646.00;5094524;28;20059;-76
2024/01/29 08:21:17;;;;;;;17.92;11.68;;;;;;;3.17;100.00;102635.38;5094202;28;20028;-75
2024/01/29 08:23:43;;;;;;;25.17;11.57;;;;;;;3.18;100.00;102634.47;5094126;28;20111;-75
2024/01/29 08:26:09;;;;;;;18.67;12.00;;;;;;;3.23;100.00;102633.47;5093995;28;20486;-77
2024/01/29 08:28:35;;;;;;;18.13;11.40;;;;;;;3.29;100.00;102639.41;5094297;28;20036;-76
2024/01/29 08:31:00;;;;;;;16.65;11.07;;;;;;;3.37;100.00;102636.53;5094324;28;20034;-74
2024/01/29 08:33:28;;;;;;;19.40;10.88;;;;;;;3.43;100.00;102640.75;5093842;28;20032;-76
2024/01/29 08:35:54;;;;;;;18.35;11.05;;;;;;;3.48;100.00;102647.59;5093849;28;20035;-76
2024/01/29 08:38:20;;;;;;;18.60;11.18;;;;;;;3.55;100.00;102647.38;5093444;28;20063;-75
2024/01/29 08:40:45;;;;;;;17.17;10.85;;;;;;;3.60;100.00;102635.81;5094125;28;20460;-75
2024/01/29 08:43:10;;;;;;;16.30;11.27;;;;;;;3.67;100.00;102639.09;5093765;28;20028;-77
2024/01/29 08:45:36;;;;;;;18.50;11.43;;;;;;;3.76;100.00;102635.28;5075803;28;20043;-74
2024/01/29 08:48:03;;;;;;;15.73;10.75;;;;;;;3.82;100.00;102627.19;5093440;28;20024;-75
2024/01/29 08:50:30;;;;;;;16.63;11.50;;;;;;;3.91;100.00;102626.88;5093634;28;20089;-75
2024/01/29 08:52:55;;;;;;;15.43;10.85;;;;;;;4.00;100.00;102620.44;5075662;28;20114;-76
2024/01/29 08:55:21;;;;;;;18.27;11.27;;;;;;;4.09;100.00;102625.41;5094168;28;20119;-75
2024/01/29 08:57:46;;;;;;;21.73;10.82;;;;;;;4.18;100.00;102618.94;5075484;28;20115;-76
2024/01/29 09:00:12;;;;;;;19.55;10.88;;;;;;;4.28;100.00;102619.47;5075640;28;20081;-77
2024/01/29 09:02:38;;;;;;;16.10;11.30;;;;;;;4.34;100.00;102629.78;5093942;28;20093;-75
2024/01/29 09:05:03;;;;;;;22.25;10.77;;;;;;;4.41;100.00;102629.50;5093162;28;20430;-74
2024/01/29 09:07:29;;;;;;;16.20;10.93;;;;;;;4.45;100.00;102635.56;5093050;28;20038;-75
2024/01/29 09:09:54;;;;;;;18.90;10.98;;;;;;;4.48;100.00;102637.19;5093118;28;20035;-76
2024/01/29 09:12:20;;;;;;;19.70;11.10;;;;;;;4.51;100.00;102634.44;5074864;28;20067;-75
2024/01/29 09:14:45;;;;;;;21.50;10.88;;;;;;;4.52;100.00;102636.19;5093083;28;20105;-77
2024/01/29 09:17:10;;;;;;;18.73;10.43;;;;;;;4.54;100.00;102637.84;5092892;28;20429;-77
2024/01/29 09:19:36;;;;;;;16.40;10.95;;;;;;;4.64;100.00;102638.34;5093149;28;20027;-76
2024/01/29 09:22:01;;;;;;;15.13;11.25;;;;;;;4.68;100.00;102634.69;5093988;28;20036;-77
2024/01/29 09:24:26;;;;;;;16.08;10.85;;;;;;;4.76;100.00;102640.56;5075170;28;20085;-78
2024/01/29 09:26:52;;;;;;;16.30;10.90;;;;;;;4.83;100.00;102643.81;5092987;28;20101;-77
2024/01/29 09:29:17;;;;;;;16.92;10.23;;;;;;;4.92;100.00;102643.47;5091318;28;20060;-77
2024/01/29 09:31:43;;;;;;;14.45;10.48;;;;;;;5.02;100.00;102640.50;5091190;28;20067;-76
2024/01/29 09:34:08;;;;;;;19.50;11.30;;;;;;;5.10;100.00;102641.03;5091877;28;20046;-78
2024/01/29 09:36:35;;;;;;;34.92;11.55;;;;;;;5.20;100.00;102641.56;5092660;28;20040;-76
2024/01/29 09:39:00;;;;;;;17.92;11.23;;;;;;;5.32;100.00;102646.34;5093353;28;20032;-78
2024/01/29 09:41:31;;;;;;;17.65;10.48;;;;;;;5.44;100.00;102652.91;5075196;28;20077;-76
2024/01/29 09:43:58;;;;;;;17.15;10.93;;;;;;;5.58;100.00;102661.16;5093930;28;20068;-76
2024/01/29 09:46:26;;;;;;;19.75;11.88;;;;;;;5.72;100.00;102665.00;5093149;28;20020;-77
2024/01/29 09:48:51;;;;;;;20.67;10.40;;;;;;;5.83;100.00;102663.63;5093348;28;20032;-75
2024/01/29 09:51:19;;;;;;;15.48;10.40;;;;;;;5.95;100.00;102661.41;5091830;28;20047;-81
2024/01/29 09:53:44;;;;;;;14.88;10.95;;;;;;;6.05;100.00;102665.41;5092998;28;20028;-76
2024/01/29 09:56:10;;;;;;;19.98;10.00;;;;;;;6.16;100.00;102664.97;5093797;28;20036;-75
2024/01/29 09:58:35;;;;;;;15.07;10.15;;;;;;;6.27;100.00;102662.72;5093914;28;20074;-75
2024/01/29 10:01:03;;;;;;;16.25;9.60;;;;;;;6.42;100.00;102668.25;5094809;28;20386;-77
2024/01/29 10:03:33;;;;;;;17.50;10.68;;;;;;;6.52;100.00;102664.28;5094359;28;20433;-79
2024/01/29 10:05:59;;;;;;;17.00;9.38;;;;;;;6.64;100.00;102665.50;5060206;28;20040;-77
2024/01/29 10:08:25;;;;;;;13.30;9.48;;;;;;;6.74;100.00;102666.81;5074905;28;20032;-76
2024/01/29 10:10:51;;;;;;;15.38;9.18;;;;;;;6.81;100.00;102670.06;5074960;28;20107;-77
2024/01/29 10:13:17;;;;;;;16.63;9.98;;;;;;;6.81;100.00;102670.06;5075459;28;20028;-76
2024/01/29 10:15:43;;;;;;;18.63;10.77;;;;;;;6.86;100.00;102671.56;5092686;28;20059;-77
2024/01/29 10:18:13;;;;;;;17.05;10.07;;;;;;;6.96;100.00;102682.59;5074412;28;20426;-76
2024/01/29 10:20:39;;;;;;;18.10;10.40;;;;;;;7.10;100.00;102684.59;5094117;28;20056;-77
2024/01/29 10:23:05;;;;;;;16.35;10.15;;;;;;;7.28;100.00;102682.03;5078596;28;20784;-76
2024/01/29 10:25:32;;;;;;;18.67;11.05;;;;;;;7.45;100.00;102679.44;5096278;28;20023;-77
2024/01/29 10:28:13;;;;;;;16.88;10.10;;;;;;;7.63;100.00;102676.81;5096711;28;20025;-76
2024/01/29 10:30:40;;;;;;;17.05;10.25;;;;;;;7.81;100.00;102682.97;5096480;28;20028;-76
2024/01/29 10:33:06;;;;;;;18.13;10.45;;;;;;;7.89;100.00;102684.31;5096433;28;20036;-75
2024/01/29 10:35:31;;;;;;;18.00;10.35;;;;;;;8.08;100.00;102678.97;5078238;28;20081;-75
2024/01/29 10:38:03;;;;;;;14.10;10.30;;;;;;;8.31;100.00;102676.94;5096516;28;20020;-76
2024/01/29 10:40:29;;;;;;;;;;;;;;;8.52;100.00;102679.44;5079212;28;20111;-74
2024/01/29 10:42:58;;;;;;;14.52;10.05;;;;;;;8.62;100.00;102683.31;5078205;28;20340;-75
2024/01/29 10:45:25;;;;;;;16.48;11.02;;;;;;;8.83;100.00;102683.97;5096017;28;20039;-75
2024/01/29 10:47:54;;;;;;;17.83;10.95;;;;;;;8.81;100.00;102677.91;5078008;28;20024;-75
2024/01/29 10:50:20;;;;;;;27.90;11.18;;;;;;;9.20;100.00;102681.13;5096576;28;20035;-76
2024/01/29 10:52:47;;;;;;;17.42;10.82;;;;;;;9.43;100.00;102685.13;5078038;28;20371;-76
2024/01/29 10:55:16;;;;;;;16.80;10.85;;;;;;;10.01;100.00;102687.06;5095803;28;20058;-75
2024/01/29 10:57:46;;;;;;;14.98;10.93;;;;;;;10.46;100.00;102683.59;5096080;28;20032;-75
2024/01/29 11:00:14;;;;;;;18.58;11.32;;;;;;;10.95;100.00;102677.91;5096618;28;20020;-75
2024/01/29 11:02:40;;;;;;;21.67;12.48;;;;;;;11.20;100.00;102673.69;5095960;28;20038;-76
2024/01/29 11:05:08;;;;;;;22.23;12.25;;;;;;;11.00;100.00;102667.84;5095884;28;20103;-75
2024/01/29 11:07:34;;;;;;;25.98;12.13;;;;;;;11.53;100.00;102681.31;5095487;28;20420;-75